createdAt,value
2022-08-23T00:02:30.313Z,6.68
2022-08-23T00:05:08.661Z,6.55
2022-08-23T00:07:41.622Z,6.40
2022-08-23T00:10:15.829Z,6.43
2022-08-23T00:12:47.627Z,7.45
2022-08-23T00:15:20.263Z,8.07
2022-08-23T00:17:50.346Z,6.53
2022-08-23T00:20:21.613Z,6.68
2022-08-23T00:22:51.783Z,6.35
2022-08-23T00:25:22.155Z,6.60
2022-08-23T00:27:53.980Z,9.30
2022-08-23T00:30:24.241Z,6.78
2022-08-23T00:32:56.949Z,10.55
2022-08-23T00:35:28.955Z,12.48
2022-08-23T00:38:31.776Z,13.30
2022-08-23T00:40:53.404Z,7.00
2022-08-23T00:43:55.283Z,7.43
2022-08-23T00:47:03.231Z,7.00
2022-08-23T00:49:35.538Z,7.30
2022-08-23T00:52:14.863Z,7.72
2022-08-23T00:54:46.268Z,7.63
2022-08-23T00:57:20.425Z,7.80
2022-08-23T00:59:50.577Z,8.48
2022-08-23T01:04:57.941Z,7.10
2022-08-23T01:07:44.833Z,8.48
2022-08-23T01:10:48.490Z,8.35
2022-08-23T01:13:56.462Z,7.68
2022-08-23T01:16:49.131Z,7.15
2022-08-23T01:19:48.959Z,8.35
2022-08-23T01:22:29.791Z,8.27
2022-08-23T01:25:06.064Z,7.45
2022-08-23T01:27:42.152Z,8.10
2022-08-23T01:30:19.109Z,7.40
2022-08-23T01:33:00.116Z,8.65
2022-08-23T01:35:40.121Z,7.47
2022-08-23T01:38:12.284Z,8.82
2022-08-23T01:40:44.394Z,8.82
2022-08-23T01:43:15.642Z,7.38
2022-08-23T01:45:45.955Z,8.07
2022-08-23T01:48:18.210Z,7.00
2022-08-23T01:50:49.234Z,7.45
2022-08-23T01:53:19.401Z,7.95
2022-08-23T01:55:52.327Z,6.60
2022-08-23T01:58:23.532Z,6.95
2022-08-23T02:00:53.858Z,7.03
2022-08-23T02:03:23.906Z,7.68
2022-08-23T02:05:53.780Z,7.57
2022-08-23T02:08:41.743Z,8.15
2022-08-23T02:13:43.608Z,8.05
2022-08-23T02:16:15.344Z,8.32
2022-08-23T02:18:46.957Z,8.05
2022-08-23T02:21:17.451Z,8.07
2022-08-23T02:23:48.557Z,8.20
2022-08-23T02:26:19.258Z,8.13
2022-08-23T02:28:54.687Z,7.78
2022-08-23T02:31:27.574Z,8.60
2022-08-23T02:33:58.322Z,9.73
2022-08-23T02:36:31.201Z,9.00
2022-08-23T02:39:01.558Z,9.77
2022-08-23T02:41:32.620Z,10.13
2022-08-23T02:44:02.669Z,7.85
2022-08-23T02:46:32.834Z,8.57
2022-08-23T02:49:02.873Z,7.85
2022-08-23T02:51:32.723Z,8.30
2022-08-23T02:56:33.090Z,8.85
2022-08-23T02:59:03.151Z,10.77
2022-08-23T03:04:16.360Z,9.50
2022-08-23T03:06:46.621Z,10.10
2022-08-23T03:11:48.834Z,8.20
2022-08-23T03:14:20.313Z,10.00
2022-08-23T03:16:51.131Z,8.85
2022-08-23T03:19:21.374Z,9.27
2022-08-23T03:21:51.156Z,7.68
2022-08-23T03:24:22.451Z,9.13
2022-08-23T03:26:53.464Z,9.32
2022-08-23T03:29:24.119Z,9.20
2022-08-23T03:32:02.593Z,9.32
2022-08-23T03:34:37.216Z,10.25
2022-08-23T03:37:09.701Z,11.27
2022-08-23T03:39:40.009Z,10.60
2022-08-23T03:42:10.463Z,10.77
2022-08-23T03:44:40.415Z,9.60
2022-08-23T03:47:10.389Z,10.45
2022-08-23T03:49:43.249Z,10.30
2022-08-23T03:52:13.485Z,10.88
2022-08-23T03:54:43.297Z,10.27
2022-08-23T03:57:14.732Z,11.10
2022-08-23T03:59:45.596Z,11.63
2022-08-23T04:02:16.108Z,11.13
2022-08-23T04:04:46.684Z,11.55
2022-08-23T04:07:39.895Z,11.10
2022-08-23T04:10:16.462Z,10.85
2022-08-23T04:12:51.085Z,11.38
2022-08-23T04:15:21.561Z,11.25
2022-08-23T04:17:51.531Z,11.30
2022-08-23T04:20:21.394Z,12.30
2022-08-23T04:22:57.600Z,13.20
2022-08-23T04:25:34.382Z,12.13
2022-08-23T04:28:07.461Z,13.35
2022-08-23T04:30:37.452Z,12.32
2022-08-23T04:33:11.347Z,10.27
2022-08-23T04:35:43.580Z,10.85
2022-08-23T04:38:24.016Z,11.90
2022-08-23T04:41:16.272Z,11.77
2022-08-23T04:43:48.680Z,9.95
2022-08-23T04:46:19.474Z,11.70
2022-08-23T04:48:50.093Z,12.40
2022-08-23T04:51:23.336Z,11.75
2022-08-23T04:53:53.701Z,11.10
2022-08-23T04:56:55.273Z,12.63
2022-08-23T04:59:25.881Z,12.32
2022-08-23T05:01:55.796Z,11.75
2022-08-23T05:06:54.865Z,11.45
2022-08-23T05:09:26.215Z,12.85
2022-08-23T05:11:57.522Z,12.68
2022-08-23T05:14:28.097Z,13.07
2022-08-23T05:16:58.897Z,12.63
2022-08-23T05:19:29.649Z,11.63
2022-08-23T05:21:59.693Z,12.25
2022-08-23T05:24:47.930Z,12.25
2022-08-23T05:27:18.145Z,11.52
2022-08-23T05:32:18.371Z,13.30
2022-08-23T05:37:19.032Z,10.02
2022-08-23T05:39:49.179Z,12.32
2022-08-23T05:42:20.580Z,11.23
2022-08-23T05:44:50.752Z,10.75
2022-08-23T05:47:23.634Z,11.32
2022-08-23T05:50:04.717Z,12.70
2022-08-23T05:52:37.896Z,12.23
2022-08-23T05:55:08.914Z,12.13
2022-08-23T05:57:58.322Z,11.85
2022-08-23T06:00:37.868Z,12.27
2022-08-23T06:03:11.738Z,12.30
2022-08-23T06:05:43.440Z,10.73
2022-08-23T06:08:14.582Z,12.05
2022-08-23T06:10:45.630Z,13.57
2022-08-23T06:13:25.793Z,11.70
2022-08-23T06:15:57.037Z,12.35
2022-08-23T06:18:29.704Z,13.40
2022-08-23T06:21:19.539Z,9.63
2022-08-23T06:23:52.102Z,11.18
2022-08-23T06:26:29.474Z,10.27
2022-08-23T06:29:03.509Z,10.90
2022-08-23T06:31:52.379Z,11.23
2022-08-23T06:34:39.456Z,9.43
2022-08-23T06:37:16.308Z,11.50
2022-08-23T06:40:05.751Z,10.85
2022-08-23T06:42:49.492Z,10.38
2022-08-23T06:45:33.975Z,9.73
2022-08-23T06:48:07.006Z,11.05
2022-08-23T06:50:37.091Z,9.40
2022-08-23T06:53:25.011Z,11.68
2022-08-23T06:56:22.141Z,10.57
2022-08-23T06:59:07.582Z,10.20
2022-08-23T07:02:07.870Z,10.18
2022-08-23T07:05:07.519Z,9.35
2022-08-23T07:07:44.844Z,10.82
2022-08-23T07:10:17.023Z,10.52
2022-08-23T07:12:47.308Z,10.32
2022-08-23T07:15:18.300Z,9.20
2022-08-23T07:17:48.841Z,8.90
2022-08-23T07:22:48.188Z,7.63
2022-08-23T07:25:19.336Z,7.90
2022-08-23T07:27:52.689Z,8.10
2022-08-23T07:30:23.104Z,8.35
2022-08-23T07:32:54.796Z,9.30
2022-08-23T07:35:26.441Z,10.07
2022-08-23T07:37:59.357Z,10.52
2022-08-23T07:43:09.557Z,8.55
2022-08-23T07:45:41.825Z,9.40
2022-08-23T07:48:14.347Z,8.00
2022-08-23T07:51:09.207Z,7.00
2022-08-23T07:53:45.785Z,7.93
2022-08-23T07:56:20.407Z,8.48
2022-08-23T07:59:17.494Z,8.70
2022-08-23T08:02:05.739Z,7.97
2022-08-23T08:04:37.137Z,8.25
2022-08-23T08:07:22.835Z,8.07
2022-08-23T08:10:01.142Z,7.78
2022-08-23T08:12:33.666Z,8.88
2022-08-23T08:15:12.860Z,8.93
2022-08-23T08:17:43.468Z,8.32
2022-08-23T08:20:21.248Z,7.53
2022-08-23T08:23:11.277Z,8.18
2022-08-23T08:28:35.846Z,7.13
2022-08-23T08:31:06.950Z,10.18
2022-08-23T08:33:38.661Z,9.25
2022-08-23T08:36:10.437Z,6.88
2022-08-23T08:38:48.453Z,7.57
2022-08-23T08:41:41.894Z,7.57
2022-08-23T08:44:47.253Z,9.63
2022-08-23T08:47:47.259Z,9.02
2022-08-23T08:50:38.793Z,7.90
2022-08-23T08:53:40.860Z,7.38
2022-08-23T08:56:32.275Z,10.43
2022-08-23T08:59:27.351Z,7.70
2022-08-23T09:02:00.739Z,7.53
2022-08-23T09:04:38.709Z,7.55
2022-08-23T09:07:21.101Z,7.53
2022-08-23T09:10:21.944Z,7.70
2022-08-23T09:14:08.254Z,8.05
2022-08-23T09:16:59.194Z,8.13
2022-08-23T09:19:39.496Z,8.70
2022-08-23T09:22:29.002Z,7.70
2022-08-23T09:25:00.464Z,7.40
2022-08-23T09:27:42.729Z,6.88
2022-08-23T09:30:16.815Z,7.95
2022-08-23T09:32:52.819Z,6.53
2022-08-23T09:35:26.881Z,6.55
2022-08-23T09:38:22.279Z,5.63
2022-08-23T09:40:59.688Z,6.93
2022-08-23T09:43:32.738Z,6.90
2022-08-23T09:46:03.741Z,7.03
2022-08-23T09:48:43.590Z,7.07
2022-08-23T09:51:27.363Z,7.47
2022-08-23T09:54:09.551Z,7.93
2022-08-23T09:56:46.316Z,7.72
2022-08-23T09:59:28.617Z,6.03
2022-08-23T10:04:48.273Z,5.50
2022-08-23T10:07:43.024Z,6.85
2022-08-23T10:10:51.135Z,7.47
2022-08-23T10:13:29.896Z,5.60
2022-08-23T10:16:27.001Z,7.70
2022-08-23T10:19:31.004Z,7.30
2022-08-23T10:22:14.894Z,7.65
2022-08-23T10:24:59.779Z,6.30
2022-08-23T10:28:11.844Z,7.07
2022-08-23T10:31:12.647Z,6.35
2022-08-23T10:34:04.089Z,6.07
2022-08-23T10:36:44.099Z,6.45
2022-08-23T10:39:31.168Z,6.88
2022-08-23T10:42:05.882Z,6.35
2022-08-23T10:44:39.387Z,6.72
2022-08-23T10:48:03.932Z,7.10
2022-08-23T10:50:57.365Z,7.50
2022-08-23T10:54:01.352Z,5.57
2022-08-23T10:56:31.947Z,6.50
2022-08-23T10:59:09.134Z,6.55
2022-08-23T11:02:12.399Z,6.65
2022-08-23T11:04:48.621Z,7.78
2022-08-23T11:07:42.402Z,6.45
2022-08-23T11:10:29.255Z,6.22
2022-08-23T11:13:20.612Z,7.45
2022-08-23T11:16:02.351Z,6.60
2022-08-23T11:18:47.526Z,7.07
2022-08-23T11:21:35.223Z,5.75
2022-08-23T11:24:08.221Z,6.10
2022-08-23T11:26:42.495Z,5.65
2022-08-23T11:29:12.622Z,6.93
2022-08-23T11:32:00.493Z,6.72
2022-08-23T11:35:00.971Z,5.90
2022-08-23T11:37:50.732Z,5.47
2022-08-23T11:40:57.038Z,5.72
2022-08-23T11:43:43.333Z,5.05
2022-08-23T11:46:28.567Z,5.97
2022-08-23T11:49:34.321Z,8.43
2022-08-23T11:52:11.333Z,4.88
2022-08-23T11:55:22.712Z,5.53
2022-08-23T11:58:09.477Z,5.18
2022-08-23T12:01:04.224Z,4.68
2022-08-23T12:03:38.134Z,5.68
2022-08-23T12:06:21.942Z,4.88
2022-08-23T12:09:03.152Z,5.32
2022-08-23T12:11:58.825Z,4.65
2022-08-23T12:14:33.965Z,4.38
2022-08-23T12:17:19.455Z,3.88
2022-08-23T12:20:02.502Z,4.90
2022-08-23T12:22:56.249Z,4.43
2022-08-23T12:25:26.735Z,5.47
2022-08-23T12:28:34.622Z,9.43
2022-08-23T12:31:18.808Z,4.20
2022-08-23T12:33:57.652Z,3.53
2022-08-23T12:37:03.808Z,4.60
2022-08-23T12:39:41.393Z,4.97
2022-08-23T12:42:28.697Z,4.18
2022-08-23T12:45:09.396Z,4.00
2022-08-23T12:47:43.359Z,4.18
2022-08-23T12:50:32.527Z,4.20
2022-08-23T12:53:06.984Z,4.00
2022-08-23T12:55:42.574Z,3.70
2022-08-23T12:58:14.909Z,4.82
2022-08-23T13:00:55.125Z,4.50
2022-08-23T13:03:45.712Z,4.93
2022-08-23T13:06:23.075Z,3.90
2022-08-23T13:08:59.765Z,4.68
2022-08-23T13:11:33.940Z,3.45
2022-08-23T13:14:31.278Z,3.30
2022-08-23T13:17:20.663Z,3.35
2022-08-23T13:19:54.919Z,3.53
2022-08-23T13:22:27.724Z,3.55
2022-08-23T13:25:28.613Z,3.20
2022-08-23T13:28:10.038Z,3.63
2022-08-23T13:30:40.315Z,3.40
2022-08-23T13:33:10.708Z,3.28
2022-08-23T13:35:45.605Z,3.53
2022-08-23T13:38:22.205Z,3.10
2022-08-23T13:41:09.918Z,3.90
2022-08-23T13:46:22.854Z,3.63
2022-08-23T13:49:04.389Z,3.72
2022-08-23T13:51:36.952Z,3.83
2022-08-23T13:54:12.716Z,3.78
2022-08-23T13:56:45.667Z,4.75
2022-08-23T13:59:32.066Z,3.50
2022-08-23T14:02:04.978Z,3.50
2022-08-23T14:04:35.533Z,3.30
2022-08-23T14:07:06.081Z,3.30
2022-08-23T14:09:36.652Z,3.08
2022-08-23T14:12:10.359Z,3.08
2022-08-23T14:14:44.794Z,3.13
2022-08-23T14:17:17.140Z,2.63
2022-08-23T14:22:41.619Z,2.60
2022-08-23T14:25:13.556Z,2.70
2022-08-23T14:27:45.931Z,2.63
2022-08-23T14:30:34.444Z,2.83
2022-08-23T14:33:06.395Z,2.53
2022-08-23T14:35:36.490Z,3.17
2022-08-23T14:38:06.213Z,2.20
2022-08-23T14:40:37.405Z,2.60
2022-08-23T14:43:07.500Z,2.70
2022-08-23T14:45:37.505Z,2.53
2022-08-23T14:48:08.165Z,2.42
2022-08-23T14:50:38.207Z,2.47
2022-08-23T14:53:09.035Z,2.17
2022-08-23T14:55:39.018Z,2.50
2022-08-23T14:58:09.264Z,2.20
2022-08-23T15:00:40.045Z,2.00
2022-08-23T15:03:12.283Z,2.08
2022-08-23T15:05:42.720Z,1.88
2022-08-23T15:08:14.133Z,1.83
2022-08-23T15:12:55.342Z,2.70
2022-08-23T15:13:41.604Z,1.75
2022-08-23T15:16:26.274Z,2.30
2022-08-23T15:18:57.775Z,2.10
2022-08-23T15:21:28.800Z,2.40
2022-08-23T15:23:59.106Z,2.63
2022-08-23T15:26:32.504Z,1.90
2022-08-23T15:29:02.784Z,3.08
2022-08-23T15:31:32.708Z,1.67
2022-08-23T15:34:02.577Z,1.70
2022-08-23T15:36:33.676Z,2.05
2022-08-23T15:39:03.677Z,2.00
2022-08-23T15:41:33.553Z,1.90
2022-08-23T15:44:03.523Z,2.20
2022-08-23T15:46:33.391Z,1.85
2022-08-23T15:49:12.099Z,1.80
2022-08-23T15:51:42.978Z,1.58
2022-08-23T15:54:13.199Z,1.52
2022-08-23T15:56:50.828Z,1.67
2022-08-23T15:59:22.824Z,1.58
2022-08-23T16:01:52.766Z,1.45
2022-08-23T16:04:22.652Z,1.70
2022-08-23T16:06:52.659Z,1.40
2022-08-23T16:09:25.640Z,1.63
2022-08-23T16:12:00.072Z,3.70
2022-08-23T16:14:32.233Z,1.60
2022-08-23T16:17:02.900Z,1.75
2022-08-23T16:19:32.876Z,1.65
2022-08-23T16:22:02.912Z,1.70
2022-08-23T16:24:34.221Z,1.55
2022-08-23T16:27:05.830Z,1.58
2022-08-23T16:29:37.351Z,1.60
2022-08-23T16:32:09.526Z,1.75
2022-08-23T16:34:39.477Z,1.52
2022-08-23T16:37:10.819Z,1.67
2022-08-23T16:39:41.368Z,1.50
2022-08-23T16:42:11.203Z,1.55
2022-08-23T16:44:40.982Z,1.50
2022-08-23T16:47:12.358Z,1.65
2022-08-23T16:49:44.374Z,1.40
2022-08-23T16:52:15.222Z,1.50
2022-08-23T16:54:45.300Z,1.40
2022-08-23T16:57:18.044Z,1.45
2022-08-23T16:59:48.274Z,1.63
2022-08-23T17:02:30.895Z,1.55
2022-08-23T17:05:01.384Z,1.58
2022-08-23T17:07:32.357Z,1.88
2022-08-23T17:10:02.108Z,1.60
2022-08-23T17:12:33.352Z,1.50
2022-08-23T17:15:03.367Z,1.33
2022-08-23T17:17:33.707Z,1.90
2022-08-23T17:20:04.237Z,1.40
2022-08-23T17:22:36.993Z,1.80
2022-08-23T17:25:08.078Z,1.70
2022-08-23T17:27:43.140Z,1.77
2022-08-23T17:30:18.604Z,1.77
2022-08-23T17:32:50.052Z,1.45
2022-08-23T17:35:25.133Z,1.65
2022-08-23T17:37:56.099Z,1.45
2022-08-23T17:40:33.346Z,1.80
2022-08-23T17:43:04.548Z,1.70
2022-08-23T17:45:42.778Z,1.90
2022-08-23T17:48:13.595Z,1.60
2022-08-23T17:50:45.359Z,1.42
2022-08-23T17:53:19.575Z,1.80
2022-08-23T17:55:50.554Z,1.45
2022-08-23T17:58:21.081Z,1.48
2022-08-23T18:00:52.795Z,1.40
2022-08-23T18:03:24.025Z,1.70
2022-08-23T18:05:55.804Z,1.40
2022-08-23T18:08:26.205Z,1.63
2022-08-23T18:10:55.954Z,1.73
2022-08-23T18:13:26.965Z,2.08
2022-08-23T18:15:57.398Z,1.67
2022-08-23T18:18:27.297Z,1.60
2022-08-23T18:20:57.269Z,1.70
2022-08-23T18:23:27.404Z,1.73
2022-08-23T18:25:57.147Z,1.83
2022-08-23T18:28:26.980Z,2.03
2022-08-23T18:30:57.356Z,1.85
2022-08-23T18:33:31.487Z,2.08
2022-08-23T18:36:02.496Z,1.90
2022-08-23T18:38:32.210Z,1.95
2022-08-23T18:41:02.232Z,1.98
2022-08-23T18:43:37.256Z,2.20
2022-08-23T18:46:08.960Z,2.03
2022-08-23T18:48:39.920Z,2.45
2022-08-23T18:51:16.313Z,2.25
2022-08-23T18:53:48.416Z,2.10
2022-08-23T18:56:18.438Z,2.40
2022-08-23T18:58:48.975Z,2.22
2022-08-23T19:01:30.878Z,2.10
2022-08-23T19:04:03.375Z,2.20
2022-08-23T19:06:34.054Z,3.20
2022-08-23T19:09:04.992Z,2.22
2022-08-23T19:11:35.909Z,1.83
2022-08-23T19:14:07.624Z,2.22
2022-08-23T19:16:38.427Z,2.15
2022-08-23T19:19:08.470Z,2.30
2022-08-23T19:21:38.221Z,2.50
2022-08-23T19:24:08.205Z,2.40
2022-08-23T19:26:39.529Z,2.30
2022-08-23T19:29:11.112Z,2.38
2022-08-23T19:31:47.696Z,2.65
2022-08-23T19:34:20.918Z,2.80
2022-08-23T19:37:00.344Z,2.65
2022-08-23T19:39:32.164Z,3.13
2022-08-23T19:42:02.771Z,2.70
2022-08-23T19:44:36.798Z,2.70
2022-08-23T19:47:08.233Z,2.90
2022-08-23T19:49:47.847Z,2.70
2022-08-23T19:52:17.686Z,3.13
2022-08-23T19:54:47.503Z,2.72
2022-08-23T19:57:17.401Z,2.83
2022-08-23T19:59:47.180Z,2.90
2022-08-23T20:02:18.158Z,3.58
2022-08-23T20:04:48.235Z,3.38
2022-08-23T20:07:18.638Z,3.78
2022-08-23T20:09:48.375Z,3.90
2022-08-23T20:12:18.455Z,3.72
2022-08-23T20:14:50.758Z,3.45
2022-08-23T20:17:20.892Z,3.25
2022-08-23T20:19:51.008Z,3.17
2022-08-23T20:22:39.345Z,3.28
2022-08-23T20:25:10.220Z,3.90
2022-08-23T20:27:40.286Z,3.28
2022-08-23T20:30:11.660Z,3.70
2022-08-23T20:32:42.138Z,3.72
2022-08-23T20:35:12.754Z,3.10
2022-08-23T20:37:42.856Z,3.20
2022-08-23T20:40:13.025Z,3.20
2022-08-23T20:42:42.822Z,3.42
2022-08-23T20:45:12.775Z,4.95
2022-08-23T20:47:42.650Z,3.90
2022-08-23T20:50:12.496Z,3.63
2022-08-23T20:52:42.403Z,3.35
2022-08-23T20:55:12.949Z,4.30
2022-08-23T20:57:43.966Z,3.97
2022-08-23T21:00:14.516Z,4.03
2022-08-23T21:02:44.292Z,4.38
2022-08-23T21:05:14.101Z,5.20
2022-08-23T21:07:44.134Z,4.30
2022-08-23T21:10:14.403Z,5.13
2022-08-23T21:12:44.129Z,4.43
2022-08-23T21:15:14.122Z,4.18
2022-08-23T21:17:47.708Z,4.63
2022-08-23T21:20:18.171Z,4.25
2022-08-23T21:22:48.167Z,3.60
2022-08-23T21:25:18.248Z,4.63
2022-08-23T21:27:47.994Z,4.28
2022-08-23T21:30:17.954Z,3.30
2022-08-23T21:32:48.663Z,4.35
2022-08-23T21:35:18.493Z,4.30
2022-08-23T21:37:48.297Z,4.07
2022-08-23T21:40:18.138Z,4.03
2022-08-23T21:42:51.045Z,4.15
2022-08-23T21:45:21.438Z,4.38
2022-08-23T21:47:52.392Z,4.63
2022-08-23T21:50:24.478Z,4.70
2022-08-23T21:52:56.729Z,4.45
2022-08-23T21:55:36.149Z,4.25
2022-08-23T21:58:08.231Z,4.47
2022-08-23T22:00:38.500Z,4.20
2022-08-23T22:03:09.312Z,4.95
2022-08-23T22:05:43.495Z,4.35
2022-08-23T22:08:14.842Z,4.55
2022-08-23T22:10:52.267Z,5.63
2022-08-23T22:13:29.936Z,4.63
2022-08-23T22:16:01.511Z,4.47
2022-08-23T22:18:32.725Z,4.53
2022-08-23T22:21:03.614Z,4.85
2022-08-23T22:23:34.137Z,4.82
2022-08-23T22:26:07.126Z,4.88
2022-08-23T22:28:37.987Z,4.63
2022-08-23T22:31:09.573Z,5.03
2022-08-23T22:33:40.574Z,4.70
2022-08-23T22:36:14.912Z,4.35
2022-08-23T22:38:45.921Z,4.93
2022-08-23T22:41:29.378Z,4.70
2022-08-23T22:44:01.579Z,5.63
2022-08-23T22:46:34.172Z,4.57
2022-08-23T22:49:04.579Z,4.80
2022-08-23T22:51:37.511Z,5.05
2022-08-23T22:54:11.865Z,6.35
2022-08-23T22:56:45.613Z,7.60
2022-08-23T22:59:17.087Z,7.43
2022-08-23T23:01:55.116Z,7.18
2022-08-23T23:04:30.510Z,6.97
2022-08-23T23:07:00.760Z,7.32
2022-08-23T23:09:31.037Z,6.30
2022-08-23T23:12:01.345Z,6.50
2022-08-23T23:14:31.123Z,6.38
2022-08-23T23:17:01.187Z,5.65
2022-08-23T23:19:49.479Z,5.20
2022-08-23T23:22:19.384Z,5.78
2022-08-23T23:24:49.107Z,5.38
2022-08-23T23:27:19.799Z,5.70
2022-08-23T23:29:49.569Z,6.78
2022-08-23T23:32:20.218Z,6.07
2022-08-23T23:34:50.073Z,5.88
2022-08-23T23:37:19.767Z,5.13
2022-08-23T23:39:50.748Z,5.65
2022-08-23T23:42:20.550Z,5.43
2022-08-23T23:44:50.383Z,6.30
2022-08-23T23:47:20.167Z,5.55
2022-08-23T23:49:51.858Z,6.22
2022-08-23T23:52:21.618Z,6.07
2022-08-23T23:54:51.372Z,4.93
2022-08-23T23:57:21.331Z,5.45
2022-08-23T23:59:51.206Z,5.28
